createdAt,value
2022-11-07T00:00:24.775Z,100658.25
2022-11-07T00:03:27.197Z,100669.50
2022-11-07T00:06:29.456Z,100659.84
2022-11-07T00:09:31.811Z,100662.44
2022-11-07T00:12:36.592Z,100665.13
2022-11-07T00:15:38.958Z,100663.03
2022-11-07T00:18:41.273Z,100645.75
2022-11-07T00:21:43.960Z,100649.97
2022-11-07T00:24:46.177Z,100646.72
2022-11-07T00:27:48.455Z,100646.06
2022-11-07T00:30:50.657Z,100640.59
2022-11-07T00:33:53.083Z,100623.72
2022-11-07T00:36:55.370Z,100625.97
2022-11-07T00:39:57.645Z,100620.47
2022-11-07T00:42:59.900Z,100617.50
2022-11-07T00:46:03.503Z,100618.94
2022-11-07T00:49:05.796Z,100618.09
2022-11-07T00:52:08.106Z,100619.66
2022-11-07T00:55:10.425Z,100602.94
2022-11-07T00:58:14.458Z,100602.78
2022-11-07T01:01:22.768Z,100606.63
2022-11-07T01:04:43.882Z,100603.56
2022-11-07T01:07:46.185Z,100602.75
2022-11-07T01:10:48.435Z,100580.19
2022-11-07T01:13:51.068Z,100591.25
2022-11-07T01:16:53.387Z,100588.50
2022-11-07T01:19:55.739Z,100580.28
2022-11-07T01:22:58.011Z,100577.00
2022-11-07T01:26:09.060Z,100578.50
2022-11-07T01:29:11.434Z,100553.53
2022-11-07T01:32:13.862Z,100555.84
2022-11-07T01:35:16.347Z,100547.25
2022-11-07T01:38:18.723Z,100544.63
2022-11-07T01:41:25.611Z,100546.44
2022-11-07T01:44:28.031Z,100530.47
2022-11-07T01:47:36.979Z,100519.66
2022-11-07T01:50:39.340Z,100495.84
2022-11-07T01:53:42.497Z,100494.53
2022-11-07T01:56:45.489Z,100485.13
2022-11-07T01:59:48.082Z,100478.34
2022-11-07T02:02:54.355Z,100471.56
2022-11-07T02:06:00.729Z,100461.84
2022-11-07T02:09:03.074Z,100449.56
2022-11-07T02:12:05.529Z,100434.56
2022-11-07T02:15:09.204Z,100415.22
2022-11-07T02:18:11.742Z,100404.44
2022-11-07T02:21:29.015Z,100397.31
2022-11-07T02:24:34.194Z,100405.78
2022-11-07T02:27:37.512Z,100409.38
2022-11-07T02:30:39.867Z,100416.03
2022-11-07T02:33:42.200Z,100411.31
2022-11-07T02:36:44.476Z,100424.41
2022-11-07T02:39:46.780Z,100424.19
2022-11-07T02:42:49.110Z,100431.31
2022-11-07T02:45:52.083Z,100441.88
2022-11-07T02:48:59.040Z,100435.31
2022-11-07T02:52:01.787Z,100446.00
2022-11-07T02:55:05.611Z,100442.75
2022-11-07T02:58:07.969Z,100451.09
2022-11-07T03:01:10.432Z,100456.31
2022-11-07T03:04:12.757Z,100450.66
2022-11-07T03:07:15.096Z,100442.94
2022-11-07T03:10:18.755Z,100436.06
2022-11-07T03:13:21.003Z,100461.81
2022-11-07T03:16:23.419Z,100457.06
2022-11-07T03:19:25.874Z,100463.16
2022-11-07T03:22:28.436Z,100449.53
2022-11-07T03:25:30.731Z,100445.09
2022-11-07T03:28:33.641Z,100445.72
2022-11-07T03:31:36.193Z,100426.53
2022-11-07T03:34:38.538Z,100409.53
2022-11-07T03:37:40.769Z,100413.47
2022-11-07T03:40:43.099Z,100411.19
2022-11-07T03:43:46.056Z,100407.34
2022-11-07T03:46:48.325Z,100409.59
2022-11-07T03:49:50.657Z,100404.09
2022-11-07T03:52:53.034Z,100402.63
2022-11-07T03:55:56.557Z,100407.78
2022-11-07T03:58:59.022Z,100410.31
2022-11-07T04:02:01.421Z,100401.19
2022-11-07T04:05:04.751Z,100426.78
2022-11-07T04:08:07.064Z,100414.78
2022-11-07T04:11:29.318Z,100409.78
2022-11-07T04:14:50.503Z,100409.50
2022-11-07T04:17:52.813Z,100412.47
2022-11-07T04:20:55.180Z,100414.41
2022-11-07T04:23:57.469Z,100411.66
2022-11-07T04:27:18.363Z,100407.31
2022-11-07T04:30:22.593Z,100407.69
2022-11-07T04:33:24.921Z,100403.16
2022-11-07T04:36:27.246Z,100400.72
2022-11-07T04:39:29.510Z,100403.94
2022-11-07T04:42:31.825Z,100385.06
2022-11-07T04:45:34.121Z,100401.88
2022-11-07T04:48:36.408Z,100397.31
2022-11-07T04:51:43.213Z,100392.44
2022-11-07T04:54:45.557Z,100389.72
2022-11-07T04:57:48.098Z,100373.09
2022-11-07T05:00:50.405Z,100374.19
2022-11-07T05:03:52.705Z,100365.34
2022-11-07T05:06:55.015Z,100376.13
2022-11-07T05:09:57.320Z,100358.34
2022-11-07T05:12:59.554Z,100366.06
2022-11-07T05:16:01.838Z,100351.69
2022-11-07T05:19:04.453Z,100350.97
2022-11-07T05:22:25.192Z,100337.38
2022-11-07T05:25:27.458Z,100337.38
2022-11-07T05:28:38.227Z,100337.63
2022-11-07T05:31:41.191Z,100347.34
2022-11-07T05:34:43.515Z,100343.03
2022-11-07T05:37:45.867Z,100353.34
2022-11-07T05:40:48.100Z,100347.41
2022-11-07T05:43:50.476Z,100341.31
2022-11-07T05:46:52.720Z,100333.44
2022-11-07T05:49:55.076Z,100320.28
2022-11-07T05:52:57.564Z,100332.97
2022-11-07T05:55:59.867Z,100328.72
2022-11-07T05:59:02.120Z,100310.06
2022-11-07T06:02:04.508Z,100326.72
2022-11-07T06:05:07.534Z,100337.41
2022-11-07T06:08:11.839Z,100338.91
2022-11-07T06:11:14.159Z,100338.22
2022-11-07T06:14:16.480Z,100346.75
2022-11-07T06:17:18.925Z,100341.13
2022-11-07T06:20:21.776Z,100349.19
2022-11-07T06:23:24.091Z,100354.84
2022-11-07T06:26:26.928Z,100349.47
2022-11-07T06:29:29.304Z,100365.78
2022-11-07T06:32:31.763Z,100359.38
2022-11-07T06:35:34.339Z,100355.00
2022-11-07T06:38:37.094Z,100355.69
2022-11-07T06:41:39.469Z,100367.84
2022-11-07T06:44:41.779Z,100367.09
2022-11-07T06:47:44.129Z,100372.88
2022-11-07T06:50:46.480Z,100362.44
2022-11-07T06:53:50.412Z,100380.25
2022-11-07T06:56:52.721Z,100373.69
2022-11-07T06:59:55.037Z,100375.19
2022-11-07T07:02:58.972Z,100377.34
2022-11-07T07:06:06.169Z,100379.97
2022-11-07T07:09:08.519Z,100378.72
2022-11-07T07:12:11.625Z,100373.31
2022-11-07T07:15:13.929Z,100374.44
2022-11-07T07:18:16.226Z,100376.81
2022-11-07T07:21:18.564Z,100370.50
2022-11-07T07:24:20.876Z,100370.19
2022-11-07T07:27:23.118Z,100357.81
2022-11-07T07:30:25.440Z,100373.31
2022-11-07T07:33:27.671Z,100372.66
2022-11-07T07:36:30.104Z,100372.16
2022-11-07T07:39:32.347Z,100379.78
2022-11-07T07:42:34.963Z,100368.00
2022-11-07T07:45:37.252Z,100365.94
2022-11-07T07:48:39.569Z,100372.31
2022-11-07T07:51:41.975Z,100375.78
2022-11-07T07:54:44.311Z,100372.16
2022-11-07T07:57:46.607Z,100365.78
2022-11-07T08:00:52.687Z,100353.47
2022-11-07T08:04:02.862Z,100339.94
2022-11-07T08:07:05.521Z,100336.84
2022-11-07T08:10:35.081Z,100353.13
2022-11-07T08:13:30.762Z,100346.03
2022-11-07T08:16:33.242Z,100349.31
2022-11-07T08:19:35.572Z,100352.28
2022-11-07T08:22:38.902Z,100351.97
2022-11-07T08:25:41.217Z,100338.84
2022-11-07T08:28:43.952Z,100348.22
2022-11-07T08:31:46.338Z,100335.25
2022-11-07T08:34:48.855Z,100342.44
2022-11-07T08:37:53.904Z,100344.16
2022-11-07T08:40:56.715Z,100356.78
2022-11-07T08:43:59.409Z,100352.22
2022-11-07T08:47:07.316Z,100340.81
2022-11-07T08:50:10.992Z,100337.91
2022-11-07T08:53:13.480Z,100334.66
2022-11-07T08:56:16.129Z,100354.88
2022-11-07T08:59:18.999Z,100349.81
2022-11-07T09:03:08.462Z,100356.81
2022-11-07T09:05:43.691Z,100362.84
2022-11-07T09:08:46.437Z,100363.06
2022-11-07T09:11:48.724Z,100375.78
2022-11-07T09:14:50.994Z,100370.97
2022-11-07T09:17:53.313Z,100363.22
2022-11-07T09:20:55.654Z,100359.38
2022-11-07T09:23:57.997Z,100368.69
2022-11-07T09:27:00.265Z,100355.09
2022-11-07T09:30:03.771Z,100360.88
2022-11-07T09:33:06.109Z,100361.84
2022-11-07T09:36:08.848Z,100363.75
2022-11-07T09:39:11.155Z,100365.88
2022-11-07T09:42:48.868Z,100359.13
2022-11-07T09:45:59.213Z,100369.63
2022-11-07T09:49:35.179Z,100365.03
2022-11-07T09:52:41.203Z,100359.53
2022-11-07T09:55:53.674Z,100364.25
2022-11-07T09:58:57.568Z,100351.81
2022-11-07T10:02:00.190Z,100357.91
2022-11-07T10:05:05.290Z,100351.38
2022-11-07T10:08:17.554Z,100356.16
2022-11-07T10:11:28.655Z,100351.91
2022-11-07T10:14:49.443Z,100347.84
2022-11-07T10:18:33.345Z,100354.69
2022-11-07T10:21:45.231Z,100347.97
2022-11-07T10:24:57.571Z,100355.31
2022-11-07T10:28:08.706Z,100337.16
2022-11-07T10:31:13.264Z,100332.00
2022-11-07T10:34:23.865Z,100335.81
2022-11-07T10:37:26.386Z,100340.13
2022-11-07T10:40:35.795Z,100321.53
2022-11-07T10:43:40.606Z,100345.25
2022-11-07T10:46:47.693Z,100346.13
2022-11-07T10:49:58.514Z,100342.31
2022-11-07T10:53:09.854Z,100352.69
2022-11-07T10:56:14.163Z,100352.00
2022-11-07T10:59:30.119Z,100355.34
2022-11-07T11:02:48.443Z,100346.69
2022-11-07T11:05:50.976Z,100333.50
2022-11-07T11:08:53.802Z,100330.31
2022-11-07T11:11:56.337Z,100345.81
2022-11-07T11:15:12.711Z,100339.81
2022-11-07T11:18:18.264Z,100322.38
2022-11-07T11:21:21.195Z,100317.78
2022-11-07T11:24:40.182Z,100324.59
2022-11-07T11:27:42.653Z,100326.03
2022-11-07T11:30:47.917Z,100340.16
2022-11-07T11:34:01.191Z,100349.97
2022-11-07T11:37:16.452Z,100339.41
2022-11-07T11:40:22.259Z,100332.31
2022-11-07T11:43:33.546Z,100329.59
2022-11-07T11:46:46.551Z,100334.50
2022-11-07T11:50:00.309Z,100329.59
2022-11-07T11:53:02.683Z,100331.81
2022-11-07T11:56:07.691Z,100342.66
2022-11-07T11:59:15.658Z,100339.97
2022-11-07T12:02:26.563Z,100340.44
2022-11-07T12:05:36.055Z,100339.91
2022-11-07T12:09:04.247Z,100340.97
2022-11-07T12:12:06.987Z,100336.38
2022-11-07T12:15:32.710Z,100338.00
2022-11-07T12:19:02.693Z,100326.88
2022-11-07T12:22:29.543Z,100338.84
2022-11-07T12:25:55.186Z,100342.34
2022-11-07T12:29:29.128Z,100348.38
2022-11-07T12:32:52.371Z,100342.91
2022-11-07T12:36:02.815Z,100349.47
2022-11-07T12:39:13.892Z,100343.19
2022-11-07T12:42:42.916Z,100338.84
2022-11-07T12:45:48.088Z,100341.81
2022-11-07T12:49:09.280Z,100345.06
2022-11-07T12:52:11.813Z,100344.25
2022-11-07T12:55:29.253Z,100340.47
2022-11-07T12:58:33.538Z,100344.56
2022-11-07T13:01:46.248Z,100350.84
2022-11-07T14:22:51.795Z,100330.84
2022-11-07T14:25:59.450Z,100349.00
2022-11-07T14:29:03.889Z,100326.91
2022-11-07T14:32:08.023Z,100339.75
2022-11-07T14:35:10.840Z,100345.88
2022-11-07T14:38:20.618Z,100327.94
2022-11-07T14:41:23.891Z,100340.38
2022-11-07T14:44:56.390Z,100330.28
2022-11-07T14:47:59.786Z,100352.06
2022-11-07T14:51:03.891Z,100342.66
2022-11-07T14:54:07.866Z,100353.81
2022-11-07T14:57:12.982Z,100358.13
2022-11-07T15:00:19.509Z,100347.47
2022-11-07T15:03:25.613Z,100349.66
2022-11-07T15:06:34.162Z,100349.59
2022-11-07T15:09:37.319Z,100368.88
2022-11-07T15:12:50.669Z,100362.63
2022-11-07T15:16:17.378Z,100367.25
2022-11-07T15:19:22.841Z,100371.81
2022-11-07T15:22:30.082Z,100384.56
2022-11-07T15:25:41.212Z,100387.00
2022-11-07T15:28:46.072Z,100381.66
2022-11-07T15:31:49.952Z,100383.25
2022-11-07T15:35:12.550Z,100381.03
2022-11-07T15:38:27.181Z,100389.75
2022-11-07T15:41:29.682Z,100392.22
2022-11-07T15:44:33.653Z,100395.66
2022-11-07T15:47:37.545Z,100393.75
2022-11-07T15:50:43.932Z,100386.13
2022-11-07T15:53:46.563Z,100390.50
2022-11-07T15:56:52.334Z,100392.13
2022-11-07T15:59:59.727Z,100390.19
2022-11-07T16:03:02.463Z,100380.91
2022-11-07T16:06:35.597Z,100382.19
2022-11-07T16:09:38.115Z,100392.66
2022-11-07T16:12:40.698Z,100386.13
2022-11-07T16:15:47.027Z,100398.38
2022-11-07T16:18:51.847Z,100402.03
2022-11-07T16:21:55.012Z,100407.56
2022-11-07T16:24:58.456Z,100387.91
2022-11-07T16:28:07.783Z,100406.19
2022-11-07T16:31:10.265Z,100421.03
2022-11-07T16:34:14.523Z,100411.03
2022-11-07T16:37:17.230Z,100417.28
2022-11-07T16:40:20.544Z,100417.31
2022-11-07T16:43:23.209Z,100415.75
2022-11-07T16:46:28.146Z,100416.03
2022-11-07T16:49:34.786Z,100408.16
2022-11-07T16:52:37.581Z,100412.75
2022-11-07T16:55:41.380Z,100418.81
2022-11-07T16:58:44.044Z,100423.22
2022-11-07T17:01:46.550Z,100420.84
2022-11-07T17:04:57.030Z,100418.81
2022-11-07T17:08:03.660Z,100423.19
2022-11-07T17:11:06.303Z,100417.72
2022-11-07T17:14:08.943Z,100424.22
2022-11-07T17:17:14.165Z,100430.34
2022-11-07T17:20:49.435Z,100433.00
2022-11-07T17:23:46.181Z,100433.75
2022-11-07T17:26:48.938Z,100437.19
2022-11-07T17:29:52.504Z,100423.69
2022-11-07T17:32:56.491Z,100437.56
2022-11-07T17:35:59.622Z,100430.47
2022-11-07T17:39:07.291Z,100434.88
2022-11-07T17:42:14.020Z,100434.56
2022-11-07T17:45:16.865Z,100434.97
2022-11-07T17:48:19.560Z,100443.22
2022-11-07T17:51:27.361Z,100443.25
2022-11-07T17:54:30.183Z,100440.19
2022-11-07T17:57:33.461Z,100448.63
2022-11-07T18:00:36.364Z,100442.97
2022-11-07T18:03:38.910Z,100450.31
2022-11-07T18:06:43.586Z,100452.56
2022-11-07T18:09:49.717Z,100449.84
2022-11-07T18:12:52.547Z,100453.84
2022-11-07T18:15:55.787Z,100449.91
2022-11-07T18:18:59.267Z,100447.13
2022-11-07T18:22:06.327Z,100449.56
2022-11-07T18:25:09.256Z,100449.84
2022-11-07T18:28:12.769Z,100443.16
2022-11-07T18:31:18.161Z,100442.34
2022-11-07T18:34:20.654Z,100446.25
2022-11-07T18:37:23.354Z,100435.84
2022-11-07T18:40:25.905Z,100438.81
2022-11-07T18:43:28.986Z,100422.50
2022-11-07T18:46:31.443Z,100427.13
2022-11-07T18:49:33.949Z,100429.94
2022-11-07T18:52:36.744Z,100436.69
2022-11-07T18:55:39.848Z,100440.38
2022-11-07T18:58:43.141Z,100440.22
2022-11-07T19:01:46.008Z,100433.63
2022-11-07T19:04:48.725Z,100439.13
2022-11-07T19:07:51.751Z,100428.75
2022-11-07T19:10:54.453Z,100434.72
2022-11-07T19:14:00.369Z,100441.88
2022-11-07T19:17:02.939Z,100432.13
2022-11-07T19:20:06.713Z,100437.84
2022-11-07T19:23:09.233Z,100431.16
2022-11-07T19:26:16.015Z,100414.28
2022-11-07T19:29:18.836Z,100426.22
2022-11-07T19:32:21.309Z,100435.47
2022-11-07T19:35:24.044Z,100436.69
2022-11-07T19:38:27.224Z,100435.38
2022-11-07T19:41:30.029Z,100438.88
2022-11-07T19:44:34.599Z,100439.91
2022-11-07T19:47:37.329Z,100430.84
2022-11-07T19:50:42.687Z,100437.88
2022-11-07T19:56:35.867Z,100433.56
2022-11-07T19:59:38.610Z,100439.34
2022-11-07T20:02:44.728Z,100435.69
2022-11-07T20:05:49.239Z,100435.34
2022-11-07T20:08:52.145Z,100429.44
2022-11-07T20:11:54.643Z,100433.16
2022-11-07T20:14:57.876Z,100412.13
2022-11-07T20:18:01.038Z,100441.06
2022-11-07T20:21:06.489Z,100442.97
2022-11-07T20:24:09.559Z,100439.69
2022-11-07T20:27:16.147Z,100429.03
2022-11-07T20:30:19.604Z,100433.41
2022-11-07T20:33:25.137Z,100437.47
2022-11-07T20:36:28.581Z,100443.22
2022-11-07T20:39:31.268Z,100441.63
2022-11-07T20:42:34.494Z,100432.63
2022-11-07T20:45:39.400Z,100436.78
2022-11-07T20:48:43.582Z,100439.44
2022-11-07T20:51:47.362Z,100432.44
2022-11-07T20:54:52.527Z,100429.69
2022-11-07T20:57:55.838Z,100426.97
2022-11-07T21:01:00.398Z,100433.75
2022-11-07T21:04:08.434Z,100430.81
2022-11-07T21:07:11.484Z,100425.31
2022-11-07T21:10:15.033Z,100437.75
2022-11-07T21:13:18.067Z,100424.13
2022-11-07T21:16:24.463Z,100436.31
2022-11-07T21:19:29.536Z,100430.47
2022-11-07T21:22:32.356Z,100421.72
2022-11-07T21:25:39.227Z,100430.72
2022-11-07T21:28:42.314Z,100437.75
2022-11-07T21:31:45.288Z,100436.03
2022-11-07T21:34:47.849Z,100439.91
2022-11-07T21:37:50.585Z,100436.31
2022-11-07T21:40:54.094Z,100442.41
2022-11-07T21:43:57.257Z,100442.97
2022-11-07T21:47:02.415Z,100430.72
2022-11-07T21:50:23.760Z,100440.03
2022-11-07T21:53:37.574Z,100433.00
2022-11-07T21:56:40.766Z,100442.69
2022-11-07T21:59:43.287Z,100434.03
2022-11-07T22:02:46.996Z,100401.94
2022-11-07T22:05:49.775Z,100437.47
2022-11-07T22:08:52.704Z,100418.84
2022-11-07T22:11:55.505Z,100435.91
2022-11-07T22:14:58.151Z,100435.44
2022-11-07T22:18:00.988Z,100435.22
2022-11-07T22:21:09.314Z,100431.22
2022-11-07T22:24:14.697Z,100437.72
2022-11-07T22:27:17.148Z,100434.53
2022-11-07T22:30:20.081Z,100433.59
2022-11-07T22:33:22.694Z,100437.19
2022-11-07T22:36:25.521Z,100440.16
2022-11-07T22:39:28.525Z,100447.09
2022-11-07T22:42:30.921Z,100446.28
2022-11-07T22:45:33.441Z,100446.56
2022-11-07T22:48:36.383Z,100449.03
2022-11-07T22:51:39.277Z,100448.38
2022-11-07T22:54:42.218Z,100448.19
2022-11-07T22:57:46.144Z,100450.19
2022-11-07T23:00:48.875Z,100457.28
2022-11-07T23:03:52.054Z,100453.50
2022-11-07T23:06:55.969Z,100451.81
2022-11-07T23:10:00.895Z,100465.88
2022-11-07T23:13:05.600Z,100462.59
2022-11-07T23:16:18.617Z,100452.47
2022-11-07T23:19:24.866Z,100464.75
2022-11-07T23:22:32.052Z,100467.63
2022-11-07T23:25:38.284Z,100460.88
2022-11-07T23:28:44.359Z,100438.59
2022-11-07T23:31:49.552Z,100467.16
2022-11-07T23:34:54.450Z,100464.22
2022-11-07T23:37:57.901Z,100463.44
2022-11-07T23:41:05.868Z,100465.88
2022-11-07T23:44:09.993Z,100466.06
2022-11-07T23:47:31.028Z,100462.03
2022-11-07T23:50:57.475Z,100465.66
2022-11-07T23:54:19.221Z,100470.97
2022-11-07T23:57:21.997Z,100463.22
